Huvudsida
METAR-TAF:

METAR-TAF

Flygplatser :

Luang-Prabang

Louang Prabang, Laos

latitud: 19-53N, longitud: 102-08E, höjd: 305 m

Aktuellt väderrapport

Denna rapport gjordes för 2 timmar och 1 minuter sedan, klockan 10:00 UTC
Vind 10 kt från nordost
Temperatur 30°C
Fuktighet 70%
Tryck 1004 hPa
Sikt 10 km eller mer
Spridda moln på en höjd av 1000 ft
Få moln på en höjd av 3000 ft, Cumulonimbus.
Brutna moln på en höjd av 8000 ft
åska,

METAR: VLLB 241000Z 04010KT 9999 TS SCT010 FEW030CB BKN080 30/24 Q1004 CB NW NOSIG

Tid: 19:01 (12:01 UTC)

Väderprognos

Denna rapport gjordes för 1 timme och 1 minuter sedan, klockan 11:00 UTC
Prognos gäller från 24 kl. 12 UTC till 25 kl. 12 UTC
Vind 6 kt från väst
Sikt: 4000 m
Spridda moln på en höjd av 2000 ft
Brutna moln på en höjd av 6000 ft
fuktdis,

TAF: VLLB 241100Z 2412/2512 27006KT 4000 BR SCT020 BKN060

Aktuella väderrapporter och prognoser från 4000 flygplatser (METAR- och TAF-rapporter).

De tillgängliga stationerna syns som gula och röda prickar på kartan.

För musen över prickarna för att se namnen på stationerna.

Klicka sedan för att få väderrapporter och prognoser.

För att ändra kartan: Klicka på de gröna knapparna med ett svart kors på för att zooma in; den gröna knappen med ett streck på för att zooma ut; eller på de gröna pilarna för angränsande kartor.


METAR-TAF: